Time;durP1;ratioP1;P1;durP2;ratioP2;P2;SDS_P1;SDS_P2;PMS_P1;PMS_P2;Temp;Humidity;BMP_temperature;BMP_pressure;BME280_temperature;BME280_humidity;BME280_pressure;Samples;Min_cycle;Max_cycle;Signal;HPM_P1;HPM_P2
2023/01/24 00:01:25;;;;;;;18.60;6.50;;;;;;;0.81;76.68;103120.43;107611;1254;108672;-60
2023/01/24 00:03:53;;;;;;;11.20;6.10;;;;;;;0.82;76.96;103124.65;107575;1254;97967;-58
2023/01/24 00:06:22;;;;;;;13.10;5.80;;;;;;;0.84;76.99;103125.70;107607;1253;98367;-59
2023/01/24 00:08:50;;;;;;;8.40;5.40;;;;;;;0.83;77.66;103126.39;107553;1253;112673;-59
2023/01/24 00:11:18;;;;;;;8.20;5.30;;;;;;;0.79;77.63;103130.51;107638;1253;109306;-58
2023/01/24 00:13:47;;;;;;;8.00;5.10;;;;;;;0.79;77.68;103130.49;107630;1253;108178;-58
2023/01/24 00:16:19;;;;;;;9.00;5.50;;;;;;;0.83;78.10;103129.94;107589;1253;97809;-58
2023/01/24 00:18:49;;;;;;;9.30;6.00;;;;;;;0.85;78.22;103135.03;107637;1254;98634;-58
2023/01/24 00:21:23;;;;;;;8.40;5.10;;;;;;;0.86;78.52;103135.91;107648;1255;111367;-60
2023/01/24 00:23:53;;;;;;;9.20;5.40;;;;;;;0.86;78.35;103133.45;107617;1252;109312;-59
2023/01/24 00:26:24;;;;;;;8.80;5.40;;;;;;;0.89;78.50;103136.96;107620;1253;108294;-59
2023/01/24 00:28:52;;;;;;;11.50;5.90;;;;;;;0.88;78.64;103134.84;107533;1253;97886;-60
2023/01/24 00:31:24;;;;;;;6.80;4.80;;;;;;;0.86;78.47;103131.67;107597;1252;97809;-59
2023/01/24 00:33:55;;;;;;;8.90;5.20;;;;;;;0.86;78.56;103131.48;107540;1256;112041;-59
2023/01/24 00:36:23;;;;;;;9.80;5.90;;;;;;;0.91;78.76;103128.63;107629;1254;110931;-59
2023/01/24 00:38:54;;;;;;;10.20;5.00;;;;;;;0.96;78.75;103123.98;107594;1253;108126;-60
2023/01/24 00:41:26;;;;;;;10.80;5.50;;;;;;;0.98;78.77;103125.91;107559;1254;97882;-59
2023/01/24 00:43:55;;;;;;;9.40;6.40;;;;;;;0.99;78.57;103123.42;107636;1253;98683;-59
2023/01/24 00:46:24;;;;;;;11.80;6.40;;;;;;;1.00;78.56;103128.89;107637;1256;111866;-59
2023/01/24 00:48:52;;;;;;;10.20;5.50;;;;;;;0.97;78.18;103128.91;107542;1252;109661;-59
2023/01/24 00:51:21;;;;;;;10.00;5.30;;;;;;;0.97;78.25;103134.23;107664;1254;108767;-60
2023/01/24 00:53:51;;;;;;;10.60;6.10;;;;;;;0.95;78.39;103134.94;107602;1253;97934;-59
2023/01/24 00:56:19;;;;;;;9.90;6.30;;;;;;;0.90;78.35;103135.01;107613;1252;98456;-60
2023/01/24 00:58:47;;;;;;;9.30;5.70;;;;;;;0.87;78.42;103136.27;107551;1254;111390;-59
2023/01/24 01:01:16;;;;;;;8.70;5.30;;;;;;;0.86;78.38;103139.80;107664;1253;110834;-59
2023/01/24 01:03:45;;;;;;;9.20;5.30;;;;;;;0.85;78.38;103139.30;107614;1252;107904;-59
2023/01/24 01:06:16;;;;;;;11.50;6.80;;;;;;;0.84;78.55;103140.01;107606;1253;97829;-62
2023/01/24 01:08:44;;;;;;;9.10;5.80;;;;;;;0.86;78.70;103140.16;107617;1253;97918;-59
2023/01/24 01:11:13;;;;;;;9.20;5.90;;;;;;;0.87;78.67;103140.50;107636;1255;112288;-59
2023/01/24 01:13:43;;;;;;;11.70;6.00;;;;;;;0.89;78.75;103140.48;107598;1252;109755;-60
2023/01/24 01:16:13;;;;;;;10.80;6.10;;;;;;;0.90;78.69;103141.35;107501;1253;108389;-59
2023/01/24 01:18:42;;;;;;;8.90;5.10;;;;;;;0.92;78.69;103143.45;107490;1254;97876;-60
2023/01/24 01:21:15;;;;;;;7.30;5.00;;;;;;;0.92;78.72;103142.75;107643;1255;98034;-60
2023/01/24 01:23:44;;;;;;;10.00;5.80;;;;;;;0.92;78.83;103139.92;107601;1254;112914;-60
2023/01/24 01:26:16;;;;;;;9.70;5.40;;;;;;;0.94;78.93;103139.72;107629;1254;110065;-60
2023/01/24 01:28:45;;;;;;;7.90;5.40;;;;;;;0.95;78.64;103137.05;107578;1255;108099;-60
2023/01/24 01:31:15;;;;;;;10.50;5.80;;;;;;;0.95;78.77;103138.82;107599;1253;97832;-60
2023/01/24 01:33:46;;;;;;;9.00;5.50;;;;;;;0.95;78.76;103137.95;107460;1253;98401;-59
2023/01/24 01:36:14;;;;;;;10.50;5.20;;;;;;;0.97;78.65;103140.76;107554;1256;111325;-60
2023/01/24 01:38:43;;;;;;;10.30;5.10;;;;;;;0.99;78.71;103137.36;107613;1252;109942;-59
2023/01/24 01:41:15;;;;;;;8.00;4.80;;;;;;;1.01;78.80;103135.23;107626;1254;109021;-59
2023/01/24 01:44:37;;;;;;;8.90;5.30;;;;;;;1.02;78.75;103137.00;107563;1253;97826;-59
2023/01/24 01:46:45;;;;;;;9.50;5.10;;;;;;;1.00;78.78;103133.84;107666;1252;98361;-61
2023/01/24 01:49:23;;;;;;;9.40;5.70;;;;;;;1.02;78.73;103136.83;107607;1254;111787;-59
2023/01/24 01:51:58;;;;;;;9.90;5.80;;;;;;;1.04;78.74;103133.44;107475;1254;109045;-58
2023/01/24 01:54:31;;;;;;;8.50;5.20;;;;;;;1.02;78.52;103136.66;107632;1253;107639;-58
2023/01/24 01:57:22;;;;;;;11.30;6.50;;;;;;;1.01;78.66;103134.53;107616;1253;97786;-59
2023/01/24 02:00:01;;;;;;;9.90;5.70;;;;;;;0.97;78.71;103133.16;107594;1253;98529;-60
2023/01/24 02:02:43;;;;;;;11.20;6.40;;;;;;;0.96;78.71;103137.77;107614;1253;112330;-59
2023/01/24 02:05:15;;;;;;;10.50;6.10;;;;;;;0.94;78.81;103133.89;107620;1253;107816;-60
2023/01/24 02:07:53;;;;;;;12.20;6.10;;;;;;;0.94;78.91;103133.36;107454;1253;108846;-59
2023/01/24 02:10:24;;;;;;;13.80;6.30;;;;;;;0.93;78.94;103134.98;107442;1253;97846;-59
2023/01/24 02:12:54;;;;;;;12.10;6.70;;;;;;;0.86;79.04;103134.49;107593;1253;97839;-60
2023/01/24 02:18:11;;;;;;;12.10;6.40;;;;;;;0.85;79.03;103130.27;107612;1254;109269;-60
2023/01/24 02:20:45;;;;;;;12.10;6.60;;;;;;;0.84;78.94;103131.16;107573;1253;107324;-59
2023/01/24 02:23:54;;;;;;;13.60;7.60;;;;;;;0.84;78.78;103128.88;107658;1254;97819;-61
2023/01/24 02:26:25;;;;;;;12.00;6.90;;;;;;;0.81;79.13;103131.91;107401;1253;97745;-60
2023/01/24 02:28:58;;;;;;;12.20;7.20;;;;;;;0.80;79.37;103129.10;107562;1253;111718;-62
2023/01/24 02:31:27;;;;;;;13.30;7.60;;;;;;;0.80;79.62;103128.02;107515;1256;109435;-59
2023/01/24 02:33:56;;;;;;;13.30;7.00;;;;;;;0.80;79.71;103127.67;107555;1254;110773;-59
2023/01/24 02:36:36;;;;;;;12.70;6.90;;;;;;;0.81;79.94;103125.02;107590;1254;97864;-60
2023/01/24 02:39:10;;;;;;;17.20;8.00;;;;;;;0.85;79.79;103122.50;107496;1252;97765;-60
2023/01/24 02:41:45;;;;;;;12.00;7.60;;;;;;;0.87;79.80;103124.59;107685;1253;111797;-61
2023/01/24 02:44:22;;;;;;;13.90;7.30;;;;;;;0.89;79.99;103123.52;107621;1253;109105;-60
2023/01/24 02:46:51;;;;;;;11.40;6.40;;;;;;;0.90;80.01;103124.74;107540;1253;107700;-60
2023/01/24 02:49:20;;;;;;;12.50;7.10;;;;;;;0.90;79.92;103122.09;107527;1254;97822;-60
2023/01/24 02:54:36;;;;;;;21.30;8.20;;;;;;;0.89;80.25;103121.41;107641;1254;111251;-59
2023/01/24 02:59:51;;;;;;;14.40;8.10;;;;;;;0.92;80.17;103124.72;107592;1254;108300;-61
2023/01/24 03:02:19;;;;;;;19.70;8.70;;;;;;;0.93;80.28;103122.42;107563;1252;97932;-60
2023/01/24 03:04:49;;;;;;;16.30;8.50;;;;;;;0.93;80.51;103122.07;107501;1254;97883;-60
2023/01/24 03:07:18;;;;;;;13.60;7.60;;;;;;;0.91;80.17;103122.61;107668;1253;113044;-61
2023/01/24 03:09:53;;;;;;;13.10;7.40;;;;;;;0.93;80.35;103120.48;107604;1253;109753;-58
2023/01/24 03:34:49;;;;;;;19.50;10.20;;;;;;;0.80;80.75;103119.20;107494;1254;111920;-60
2023/01/24 03:40:15;;;;;;;16.40;10.00;;;;;;;0.83;81.00;103123.76;107534;1256;108296;-60
2023/01/24 03:42:48;;;;;;;15.40;9.50;;;;;;;0.84;81.15;103121.09;107539;1254;97902;-60
2023/01/24 03:45:23;;;;;;;18.50;10.30;;;;;;;0.86;81.40;103121.60;107609;1254;97734;-60
2023/01/24 03:47:58;;;;;;;18.40;10.40;;;;;;;0.86;81.75;103120.73;107445;1252;112298;-61
2023/01/24 03:53:26;;;;;;;24.30;12.40;;;;;;;0.87;81.71;103115.94;107396;1254;108769;-60
2023/01/24 03:56:00;;;;;;;19.40;11.10;;;;;;;0.88;81.74;103115.58;107577;1252;98532;-58
2023/01/24 03:58:33;;;;;;;20.60;10.80;;;;;;;0.92;81.82;103113.77;107595;1253;97736;-60
2023/01/24 04:01:04;;;;;;;18.80;9.80;;;;;;;0.96;81.82;103116.20;107596;1253;111091;-59
2023/01/24 04:04:02;;;;;;;20.70;10.10;;;;;;;1.01;82.32;103114.73;107484;1253;109887;-59
2023/01/24 04:06:31;;;;;;;22.30;10.90;;;;;;;0.98;82.51;103120.42;107573;1254;107681;-62
2023/01/24 04:09:00;;;;;;;15.20;9.50;;;;;;;0.93;82.94;103122.06;107528;1253;97935;-59
2023/01/24 04:11:29;;;;;;;16.10;8.50;;;;;;;0.88;83.25;103123.88;107618;1254;98375;-59
2023/01/24 04:14:04;;;;;;;15.70;9.80;;;;;;;0.83;83.55;103119.52;107582;1254;111897;-59
2023/01/24 04:16:34;;;;;;;15.60;8.70;;;;;;;0.83;83.78;103115.29;107575;1251;109366;-60
2023/01/24 04:19:17;;;;;;;14.70;8.70;;;;;;;0.80;83.83;103122.02;107399;1252;109678;-60
2023/01/24 04:21:46;;;;;;;17.70;10.00;;;;;;;0.77;83.81;103119.23;107577;1253;97845;-59
2023/01/24 04:24:14;;;;;;;19.50;9.70;;;;;;;0.79;83.92;103124.67;107585;1256;97707;-59
2023/01/24 04:26:44;;;;;;;15.20;9.80;;;;;;;0.72;84.30;103124.91;107615;1254;112447;-61
2023/01/24 04:29:18;;;;;;;16.70;9.80;;;;;;;0.67;84.38;103122.84;107627;1254;109818;-59
2023/01/24 04:31:48;;;;;;;18.30;10.10;;;;;;;0.64;84.70;103127.63;107468;1257;108448;-61
2023/01/24 04:34:35;;;;;;;17.20;9.40;;;;;;;0.62;84.54;103126.60;107597;1254;97944;-59
2023/01/24 04:37:05;;;;;;;13.90;9.20;;;;;;;0.62;84.45;103126.07;107631;1254;97817;-59
2023/01/24 04:39:35;;;;;;;21.10;9.90;;;;;;;0.66;84.56;103122.86;107569;1254;112554;-58
2023/01/24 04:42:10;;;;;;;17.80;8.20;;;;;;;0.70;84.69;103127.58;107578;1254;110044;-64
2023/01/24 04:44:39;;;;;;;16.30;8.90;;;;;;;0.72;84.50;103128.29;107632;1253;109581;-60
2023/01/24 04:47:09;;;;;;;15.00;8.50;;;;;;;0.72;84.37;103128.80;107584;1252;98535;-59
2023/01/24 04:49:38;;;;;;;15.70;9.50;;;;;;;0.74;84.32;103129.32;107602;1253;97723;-62
2023/01/24 04:52:12;;;;;;;19.40;9.20;;;;;;;0.76;84.35;103131.60;107567;1254;112781;-59
2023/01/24 04:54:58;;;;;;;16.70;9.60;;;;;;;0.76;84.33;103133.89;107582;1254;109705;-59
2023/01/24 04:57:26;;;;;;;17.10;8.90;;;;;;;0.75;84.30;103134.61;107467;1253;108601;-58
2023/01/24 04:59:55;;;;;;;18.40;9.70;;;;;;;0.73;84.29;103138.34;107532;1253;98486;-59
2023/01/24 05:02:24;;;;;;;15.60;9.30;;;;;;;0.72;84.45;103142.40;107549;1253;97828;-60
2023/01/24 05:04:53;;;;;;;14.40;9.40;;;;;;;0.72;84.51;103141.34;107603;1253;111763;-60
2023/01/24 05:07:22;;;;;;;17.40;8.80;;;;;;;0.75;84.45;103141.15;107473;1253;109282;-60
2023/01/24 05:09:57;;;;;;;15.30;9.40;;;;;;;0.77;84.43;103142.54;107423;1254;108539;-61
2023/01/24 05:12:25;;;;;;;21.50;9.90;;;;;;;0.78;84.56;103146.59;107442;1254;97844;-60
2023/01/24 05:14:54;;;;;;;18.60;9.70;;;;;;;0.80;84.29;103146.94;107580;1253;97849;-61
2023/01/24 05:17:22;;;;;;;20.40;10.70;;;;;;;0.79;84.29;103147.46;107440;1253;112981;-60
2023/01/24 05:19:51;;;;;;;17.50;9.70;;;;;;;0.77;83.97;103149.25;107573;1253;109848;-62
2023/01/24 05:22:20;;;;;;;16.90;9.80;;;;;;;0.77;84.10;103148.72;107509;1253;109055;-60
2023/01/24 05:24:49;;;;;;;19.40;10.60;;;;;;;0.77;84.31;103152.25;107472;1258;97862;-61
2023/01/24 05:27:17;;;;;;;19.10;11.00;;;;;;;0.81;84.25;103153.46;107514;1252;97920;-58
2023/01/24 05:29:52;;;;;;;16.90;10.30;;;;;;;0.86;84.26;103153.93;107490;1257;112051;-59
2023/01/24 05:32:21;;;;;;;21.00;10.60;;;;;;;0.91;84.11;103154.94;107394;1252;110123;-60
2023/01/24 05:34:50;;;;;;;18.30;11.00;;;;;;;0.93;83.99;103156.35;107498;1253;107840;-59
2023/01/24 05:37:19;;;;;;;17.70;10.80;;;;;;;0.95;83.92;103153.85;107589;1255;97925;-60
2023/01/24 05:39:47;;;;;;;37.70;20.90;;;;;;;0.98;83.83;103160.02;107453;1253;97740;-60
2023/01/24 05:42:15;;;;;;;25.00;11.20;;;;;;;1.00;83.83;103155.93;107571;1254;111878;-59
2023/01/24 05:44:46;;;;;;;21.20;10.70;;;;;;;0.97;83.69;103156.84;107457;1254;109201;-61
2023/01/24 05:47:14;;;;;;;18.30;10.00;;;;;;;0.97;83.47;103158.42;107558;1254;108496;-60
2023/01/24 05:49:46;;;;;;;17.60;10.60;;;;;;;0.99;83.62;103154.88;107562;1255;97836;-59
2023/01/24 05:52:21;;;;;;;17.20;10.10;;;;;;;1.00;83.56;103155.73;107597;1254;97864;-60
2023/01/24 05:54:53;;;;;;;18.60;9.80;;;;;;;1.02;83.66;103161.56;107589;1253;111524;-60
2023/01/24 05:57:26;;;;;;;16.60;10.20;;;;;;;1.03;83.70;103163.14;107560;1254;110018;-60
2023/01/24 06:00:14;;;;;;;18.20;11.00;;;;;;;1.03;83.67;103166.33;107624;1253;107692;-60
2023/01/24 06:02:45;;;;;;;22.50;10.20;;;;;;;1.03;83.79;103170.37;107628;1252;97826;-59
2023/01/24 06:05:16;;;;;;;24.00;10.40;;;;;;;1.05;83.89;103173.55;107534;1254;97721;-60
2023/01/24 06:07:44;;;;;;;20.10;10.80;;;;;;;1.11;84.03;103174.02;107591;1253;111767;-60
2023/01/24 06:10:12;;;;;;;19.40;10.40;;;;;;;1.12;83.73;103176.83;107578;1255;109616;-59
2023/01/24 06:12:54;;;;;;;25.10;10.80;;;;;;;1.13;83.74;103178.05;107555;1254;108509;-60
2023/01/24 06:15:23;;;;;;;19.20;9.90;;;;;;;1.16;83.84;103175.56;107548;1252;97905;-59
2023/01/24 06:17:51;;;;;;;21.00;9.30;;;;;;;1.17;83.81;103176.42;107620;1255;98398;-61
2023/01/24 06:20:20;;;;;;;22.00;10.30;;;;;;;1.19;83.68;103174.28;107623;1254;111662;-60
2023/01/24 06:22:52;;;;;;;21.50;10.20;;;;;;;1.18;83.59;103176.77;107468;1254;109068;-60
2023/01/24 06:25:25;;;;;;;24.40;11.10;;;;;;;1.22;83.63;103174.23;107581;1255;107580;-59
2023/01/24 06:27:53;;;;;;;19.90;10.70;;;;;;;1.24;83.52;103171.94;107547;1255;98455;-60
2023/01/24 06:30:22;;;;;;;22.00;10.90;;;;;;;1.23;83.44;103173.19;107596;1252;98385;-59
2023/01/24 06:33:02;;;;;;;15.90;8.80;;;;;;;1.26;83.77;103174.39;107620;1254;112304;-60
2023/01/24 06:36:00;;;;;;;18.40;10.10;;;;;;;1.26;83.43;103175.79;107487;1253;109702;-60
2023/01/24 06:38:29;;;;;;;20.50;9.60;;;;;;;1.23;83.31;103176.70;107577;1255;108768;-59
2023/01/24 06:41:01;;;;;;;17.10;8.50;;;;;;;1.20;83.40;103175.52;107594;1254;97892;-60
2023/01/24 06:43:30;;;;;;;17.20;8.70;;;;;;;1.17;83.23;103181.91;107604;1254;97799;-60
2023/01/24 06:45:59;;;;;;;15.40;8.60;;;;;;;1.16;83.38;103179.63;107587;1254;111012;-61
2023/01/24 06:48:27;;;;;;;21.80;9.30;;;;;;;1.17;83.52;103181.56;107594;1254;110948;-61
2023/01/24 06:50:56;;;;;;;13.90;8.80;;;;;;;1.13;83.58;103178.59;107574;1252;108213;-60
2023/01/24 06:53:24;;;;;;;16.80;7.90;;;;;;;1.10;83.48;103180.56;107518;1254;97828;-60
2023/01/24 06:55:53;;;;;;;19.60;9.30;;;;;;;1.07;83.61;103181.30;107596;1253;97711;-62
2023/01/24 06:58:22;;;;;;;22.60;9.30;;;;;;;1.04;83.38;103184.34;107638;1252;113299;-59
2023/01/24 07:00:53;;;;;;;18.40;8.80;;;;;;;1.00;83.39;103183.84;107672;1255;110066;-60
2023/01/24 07:03:21;;;;;;;17.80;9.40;;;;;;;0.97;83.41;103185.81;107547;1252;108661;-60
2023/01/24 07:05:50;;;;;;;14.00;7.70;;;;;;;0.94;83.56;103190.44;107672;1252;97831;-61
2023/01/24 07:08:20;;;;;;;14.90;9.30;;;;;;;0.93;83.82;103189.38;107544;1253;99055;-59
2023/01/24 07:10:49;;;;;;;25.60;8.30;;;;;;;0.92;83.75;103188.16;107520;1254;111406;-59
2023/01/24 07:13:18;;;;;;;13.70;8.10;;;;;;;0.94;83.71;103189.37;107605;1253;109690;-60
2023/01/24 07:15:46;;;;;;;17.50;8.40;;;;;;;0.94;83.87;103187.23;107566;1254;107397;-60
2023/01/24 07:18:18;;;;;;;20.90;8.50;;;;;;;0.95;83.74;103185.13;107619;1255;97982;-59
2023/01/24 07:20:47;;;;;;;18.30;8.00;;;;;;;0.97;83.96;103188.11;107573;1252;98392;-59
2023/01/24 07:23:21;;;;;;;16.50;8.20;;;;;;;1.01;84.00;103185.08;107619;1253;111405;-60
2023/01/24 07:25:51;;;;;;;16.00;7.80;;;;;;;1.05;83.83;103188.04;107625;1254;109757;-59
2023/01/24 07:28:19;;;;;;;18.40;7.40;;;;;;;1.09;83.66;103186.77;107605;1255;108604;-59
2023/01/24 07:30:49;;;;;;;15.20;7.90;;;;;;;1.13;83.16;103192.38;107566;1252;98645;-60
2023/01/24 07:33:17;;;;;;;20.00;10.10;;;;;;;1.14;82.91;103191.31;107601;1253;97826;-61
2023/01/24 07:35:45;;;;;;;16.80;8.60;;;;;;;1.14;82.82;103195.91;107529;1253;111998;-60
2023/01/24 07:38:14;;;;;;;19.40;8.10;;;;;;;1.17;82.96;103195.16;107543;1253;109288;-61
2023/01/24 07:40:42;;;;;;;20.80;8.40;;;;;;;1.24;83.07;103198.27;107572;1253;108818;-61
2023/01/24 07:43:11;;;;;;;16.80;6.90;;;;;;;1.27;82.76;103199.67;107608;1254;97694;-59
2023/01/24 07:45:39;;;;;;;19.10;7.70;;;;;;;1.30;82.71;103200.36;107626;1254;97726;-59
2023/01/24 07:48:08;;;;;;;22.10;9.20;;;;;;;1.28;82.18;103199.48;107532;1253;112220;-60
2023/01/24 07:50:36;;;;;;;15.50;7.50;;;;;;;1.23;82.01;103200.23;107573;1254;109105;-59
2023/01/24 07:53:05;;;;;;;14.50;7.50;;;;;;;1.20;82.00;103198.85;107560;1254;108186;-60
2023/01/24 07:55:33;;;;;;;18.90;8.10;;;;;;;1.20;82.36;103197.26;107563;1254;97941;-60
2023/01/24 07:58:02;;;;;;;12.60;6.90;;;;;;;1.18;82.58;103199.39;107612;1253;97715;-62
2023/01/24 08:00:31;;;;;;;17.00;7.90;;;;;;;1.12;82.57;103201.93;107544;1254;111392;-59
2023/01/24 08:02:59;;;;;;;18.60;7.40;;;;;;;1.07;82.78;103200.91;107618;1254;110790;-59
2023/01/24 08:05:28;;;;;;;14.30;7.00;;;;;;;1.03;82.63;103201.84;107585;1255;107799;-61
2023/01/24 08:07:56;;;;;;;12.90;7.50;;;;;;;1.05;82.76;103201.47;107578;1256;97821;-60
2023/01/24 08:10:24;;;;;;;15.90;7.90;;;;;;;1.04;82.70;103202.52;107522;1253;98363;-60
2023/01/24 08:12:53;;;;;;;13.40;8.00;;;;;;;1.01;82.64;103208.76;107536;1253;114815;-61
2023/01/24 08:15:24;;;;;;;16.60;8.20;;;;;;;1.00;82.68;103212.12;107539;1254;109692;-59
2023/01/24 08:17:52;;;;;;;13.10;7.80;;;;;;;0.98;82.56;103207.37;107449;1254;108576;-60
2023/01/24 08:20:21;;;;;;;15.80;8.20;;;;;;;0.98;82.37;103209.30;107473;1254;97894;-59
2023/01/24 08:22:55;;;;;;;16.40;7.60;;;;;;;0.97;82.34;103212.15;107546;1252;97704;-59
2023/01/24 08:25:26;;;;;;;15.10;7.30;;;;;;;1.01;82.45;103208.58;107564;1253;112215;-61
2023/01/24 08:27:55;;;;;;;12.30;7.30;;;;;;;1.07;82.62;103210.99;107510;1254;110129;-60
2023/01/24 08:30:24;;;;;;;14.60;7.10;;;;;;;1.12;82.39;103212.53;107486;1256;108674;-60
2023/01/24 08:33:04;;;;;;;14.70;7.70;;;;;;;1.16;81.74;103214.27;107545;1253;97707;-61
2023/01/24 08:35:33;;;;;;;18.50;7.90;;;;;;;1.19;81.78;103216.19;107533;1253;98455;-60
2023/01/24 08:38:01;;;;;;;13.80;7.90;;;;;;;1.24;81.39;103214.02;107483;1253;111903;-60
2023/01/24 08:40:29;;;;;;;13.60;8.00;;;;;;;1.26;81.33;103215.77;107401;1254;109549;-59
2023/01/24 08:43:08;;;;;;;12.00;7.10;;;;;;;1.34;81.17;103216.21;107520;1254;108541;-61
2023/01/24 08:45:37;;;;;;;16.80;8.60;;;;;;;1.35;80.76;103215.68;107548;1253;97823;-59
2023/01/24 08:48:06;;;;;;;15.00;7.70;;;;;;;1.35;80.99;103217.95;107539;1253;97933;-59
2023/01/24 08:50:34;;;;;;;13.00;6.90;;;;;;;1.39;81.05;103221.99;107570;1254;111807;-60
2023/01/24 08:53:03;;;;;;;14.80;8.30;;;;;;;1.39;79.97;103215.98;107362;1253;109866;-59
2023/01/24 08:55:31;;;;;;;12.30;7.30;;;;;;;1.38;79.99;103212.82;107593;1252;108657;-60
2023/01/24 08:58:02;;;;;;;16.70;8.00;;;;;;;1.38;79.57;103215.64;107579;1254;97822;-60
2023/01/24 09:00:31;;;;;;;14.80;7.60;;;;;;;1.41;80.07;103215.42;107580;1253;98367;-60
2023/01/24 09:03:00;;;;;;;16.90;8.70;;;;;;;1.46;79.86;103212.02;107514;1254;111807;-59
2023/01/24 09:05:30;;;;;;;17.00;8.80;;;;;;;1.47;79.47;103211.83;107427;1254;109118;-59
2023/01/24 09:07:58;;;;;;;16.60;8.60;;;;;;;1.50;79.65;103208.24;107628;1255;108606;-59
2023/01/24 09:10:27;;;;;;;19.70;9.80;;;;;;;1.51;79.07;103203.11;107620;1253;98010;-60
2023/01/24 09:12:56;;;;;;;17.30;10.40;;;;;;;1.52;79.35;103204.17;107566;1254;98491;-60
2023/01/24 09:15:24;;;;;;;23.00;10.90;;;;;;;1.56;79.40;103203.41;107592;1254;111794;-60
2023/01/24 09:17:53;;;;;;;20.60;11.30;;;;;;;1.57;79.13;103200.39;107599;1254;110267;-59
2023/01/24 09:20:22;;;;;;;18.80;11.20;;;;;;;1.58;79.18;103198.80;107550;1254;108797;-61
2023/01/24 09:22:50;;;;;;;21.90;12.00;;;;;;;1.58;79.23;103195.42;107599;1254;97912;-61
2023/01/24 09:25:18;;;;;;;21.60;10.90;;;;;;;1.59;79.22;103195.08;107414;1254;97813;-60
2023/01/24 09:27:55;;;;;;;20.90;10.80;;;;;;;1.59;79.04;103191.16;107662;1254;111070;-61
2023/01/24 09:30:24;;;;;;;26.20;11.80;;;;;;;1.58;79.18;103188.18;107616;1254;109829;-59
2023/01/24 09:32:52;;;;;;;24.10;11.70;;;;;;;1.59;78.95;103185.52;107609;1252;109320;-61
2023/01/24 09:35:21;;;;;;;24.90;13.10;;;;;;;1.61;79.21;103185.14;107541;1254;97850;-60
2023/01/24 09:37:51;;;;;;;26.80;10.70;;;;;;;1.63;79.07;103183.34;107574;1253;97948;-59
2023/01/24 09:40:44;;;;;;;23.20;12.10;;;;;;;1.63;78.97;103178.39;107518;1253;110858;-61
2023/01/24 09:43:30;;;;;;;15.90;9.20;;;;;;;1.61;78.09;103176.65;107606;1254;109685;-58
2023/01/24 09:46:32;;;;;;;20.50;10.50;;;;;;;1.59;77.17;103175.08;107578;1254;108111;-60
2023/01/24 09:49:37;;;;;;;17.90;10.20;;;;;;;1.57;77.39;103178.29;107254;1254;97989;-59
2023/01/24 09:52:15;;;;;;;23.10;10.80;;;;;;;1.57;78.16;103176.16;107570;1254;97854;-59
2023/01/24 09:54:51;;;;;;;20.60;11.80;;;;;;;1.65;78.36;103178.38;107588;1254;112033;-60
2023/01/24 09:57:58;;;;;;;21.20;12.00;;;;;;;1.69;78.41;103176.89;107587;1256;109929;-61
2023/01/24 10:00:34;;;;;;;19.20;10.30;;;;;;;1.74;78.29;103172.23;107491;1252;107608;-60
2023/01/24 10:03:12;;;;;;;24.20;11.90;;;;;;;1.74;78.00;103169.95;107537;1254;97829;-60
2023/01/24 10:05:46;;;;;;;19.00;11.80;;;;;;;1.72;77.55;103169.27;107622;1254;98376;-60
2023/01/24 10:08:36;;;;;;;25.90;11.30;;;;;;;1.68;77.42;103167.55;107575;1252;110996;-59
2023/01/24 10:11:24;;;;;;;21.70;11.50;;;;;;;1.64;77.51;103162.45;107651;1254;110066;-59
2023/01/24 10:14:16;;;;;;;21.90;12.10;;;;;;;1.59;77.42;103159.87;107510;1255;107836;-60
2023/01/24 10:17:07;;;;;;;18.50;12.10;;;;;;;1.51;77.66;103154.67;107586;1254;97898;-60
2023/01/24 10:19:51;;;;;;;20.70;12.60;;;;;;;1.51;77.99;103156.25;107589;1254;97935;-61
2023/01/24 10:22:44;;;;;;;22.70;12.40;;;;;;;1.51;78.11;103150.95;107616;1254;112258;-59
2023/01/24 10:25:21;;;;;;;20.50;12.70;;;;;;;1.50;78.21;103147.95;107535;1254;109748;-60
2023/01/24 10:27:55;;;;;;;26.00;12.70;;;;;;;1.49;78.23;103142.47;107564;1254;107322;-61
2023/01/24 10:30:36;;;;;;;22.50;12.70;;;;;;;1.48;78.10;103141.62;107503;1253;97916;-59
2023/01/24 10:33:18;;;;;;;21.40;11.90;;;;;;;1.45;78.17;103137.75;107565;1254;97723;-59
2023/01/24 10:35:47;;;;;;;21.60;12.00;;;;;;;1.48;78.52;103132.23;107594;1254;112198;-59
2023/01/24 10:38:17;;;;;;;26.00;13.90;;;;;;;1.49;78.12;103124.98;107623;1254;110615;-59
2023/01/24 10:40:50;;;;;;;21.20;11.80;;;;;;;1.45;77.69;103120.95;107518;1253;108088;-60
2023/01/24 10:43:22;;;;;;;23.20;12.60;;;;;;;1.45;77.49;103116.01;106756;1254;1036739;-61
2023/01/24 10:46:11;;;;;;;22.90;12.40;;;;;;;1.44;77.59;103116.36;107560;1255;97936;-59
2023/01/24 10:48:44;;;;;;;23.30;11.60;;;;;;;1.45;77.31;103107.87;107702;1254;112360;-58
2023/01/24 10:51:15;;;;;;;18.50;10.70;;;;;;;1.43;77.00;103105.59;107559;1254;110200;-59
2023/01/24 10:53:45;;;;;;;18.50;10.30;;;;;;;1.45;76.64;103103.62;107520;1254;108631;-62
2023/01/24 10:56:15;;;;;;;17.10;10.50;;;;;;;1.41;75.91;103099.43;107591;1252;97828;-59
2023/01/24 10:58:53;;;;;;;18.90;10.00;;;;;;;1.36;76.24;103101.79;107661;1254;97723;-60
2023/01/24 11:01:31;;;;;;;24.70;13.00;;;;;;;1.33;76.27;103102.17;107620;1255;111840;-61
2023/01/24 11:04:17;;;;;;;27.90;12.60;;;;;;;1.30;76.28;103102.23;107618;1254;108851;-60
2023/01/24 11:06:48;;;;;;;28.20;12.40;;;;;;;1.27;76.05;103099.60;107549;1254;109723;-60
2023/01/24 11:09:24;;;;;;;24.00;12.50;;;;;;;1.27;76.45;103104.02;107584;1254;97823;-59
2023/01/24 11:11:55;;;;;;;25.00;12.40;;;;;;;1.28;76.27;103099.94;107583;1254;97949;-61
2023/01/24 11:14:27;;;;;;;32.90;14.60;;;;;;;1.26;76.08;103101.90;107625;1254;111486;-61
2023/01/24 11:16:58;;;;;;;34.30;14.60;;;;;;;1.24;75.64;103101.92;107539;1254;109730;-60
2023/01/24 11:19:35;;;;;;;27.50;14.30;;;;;;;1.19;75.89;103098.64;107607;1254;108141;-59
2023/01/24 11:22:23;;;;;;;29.20;14.80;;;;;;;1.21;76.19;103096.48;107591;1254;97930;-59
2023/01/24 11:24:58;;;;;;;32.30;16.20;;;;;;;1.21;75.96;103091.52;107570;1254;98482;-60
2023/01/24 11:27:27;;;;;;;33.50;16.30;;;;;;;1.25;76.09;103090.60;107566;1254;111314;-60
2023/01/24 11:30:19;;;;;;;35.20;15.70;;;;;;;1.26;75.86;103094.13;107618;1254;110041;-59
2023/01/24 11:33:34;;;;;;;28.30;16.30;;;;;;;1.16;75.41;103089.30;107561;1254;108438;-60
2023/01/24 11:36:29;;;;;;;28.30;15.50;;;;;;;1.12;75.56;103092.16;107281;1254;97803;-60
2023/01/24 11:39:00;;;;;;;;;;;;;;;1.12;75.60;103091.30;107597;1254;97829;-60
2023/01/24 11:41:37;;;;;;;32.40;16.00;;;;;;;1.11;75.49;103092.89;107584;1254;112003;-59
2023/01/24 11:44:47;;;;;;;31.30;16.40;;;;;;;1.10;75.83;103089.73;107565;1254;109717;-60
2023/01/24 11:47:19;;;;;;;32.70;15.50;;;;;;;1.11;75.86;103084.23;107474;1257;108074;-60
2023/01/24 11:50:23;;;;;;;32.40;16.20;;;;;;;1.12;75.83;103087.74;107532;1254;97713;-60
2023/01/24 11:53:20;;;;;;;31.70;15.30;;;;;;;1.17;76.23;103087.87;107527;1254;97826;-61
2023/01/24 11:55:56;;;;;;;30.50;15.10;;;;;;;1.22;75.83;103089.22;107565;1254;112547;-59
2023/01/24 11:58:55;;;;;;;28.10;14.70;;;;;;;1.19;75.19;103089.98;107575;1256;110622;-61
2023/01/24 12:01:36;;;;;;;32.70;15.90;;;;;;;1.10;74.77;103088.84;107596;1256;107036;-60
2023/01/24 12:04:05;;;;;;;37.10;15.00;;;;;;;1.07;75.23;103091.70;107538;1256;97888;-59
2023/01/24 12:06:42;;;;;;;32.20;16.50;;;;;;;1.07;75.35;103093.66;107667;1254;98392;-60
2023/01/24 12:09:17;;;;;;;32.20;15.40;;;;;;;1.08;75.08;103091.69;107566;1252;111267;-60
2023/01/24 12:12:07;;;;;;;33.40;15.20;;;;;;;1.03;75.04;103094.04;107633;1256;110151;-61
2023/01/24 12:14:47;;;;;;;29.00;15.10;;;;;;;1.00;74.53;103097.09;107627;1256;106471;-59